Time;durP1;ratioP1;P1;durP2;ratioP2;P2;SDS_P1;SDS_P2;PMS_P1;PMS_P2;Temp;Humidity;BMP_temperature;BMP_pressure;BME280_temperature;BME280_humidity;BME280_pressure;Samples;Min_cycle;Max_cycle;Signal;HPM_P1;HPM_P2
2023/08/11 00:00:10;;;;;;;10.73;7.90;;;;;;;15.46;94.00;101947.63;6216506;23;20012;-69
2023/08/11 00:02:37;;;;;;;14.15;8.90;;;;;;;15.42;93.48;101958.25;6216036;23;20394;-69
2023/08/11 00:05:03;;;;;;;11.80;8.27;;;;;;;15.40;92.95;101945.94;6192120;23;20150;-70
2023/08/11 00:07:28;;;;;;;12.25;8.85;;;;;;;15.33;94.05;101945.19;6190782;23;20059;-69
2023/08/11 00:09:55;;;;;;;10.15;9.10;;;;;;;15.19;95.26;101937.44;6192161;23;20263;-69
2023/08/11 00:12:20;;;;;;;10.25;9.10;;;;;;;15.23;95.34;101944.44;6167013;23;20035;-69
2023/08/11 00:14:46;;;;;;;10.75;9.65;;;;;;;15.19;95.85;101937.44;6192397;23;20010;-69
2023/08/11 00:17:11;;;;;;;11.68;9.93;;;;;;;15.21;95.28;101937.41;6164752;23;20405;-69
2023/08/11 00:19:37;;;;;;;10.60;9.40;;;;;;;15.14;95.72;101934.00;6191927;23;20346;-69
2023/08/11 00:22:02;;;;;;;11.73;9.02;;;;;;;15.18;95.88;101934.81;6214117;23;20422;-69
2023/08/11 00:24:28;;;;;;;12.60;9.35;;;;;;;15.22;95.45;101941.81;6216598;22;20008;-69
2023/08/11 00:26:54;;;;;;;10.50;9.40;;;;;;;15.16;95.72;101945.41;6190286;23;20016;-69
2023/08/11 00:29:19;;;;;;;10.07;9.02;;;;;;;15.17;95.17;101944.53;6215821;23;20027;-69
2023/08/11 00:31:46;;;;;;;9.40;8.38;;;;;;;15.14;95.51;101938.38;6191514;23;20004;-69
2023/08/11 00:34:12;;;;;;;11.48;10.48;;;;;;;15.10;96.48;101940.22;6191626;23;20015;-69
2023/08/11 00:36:37;;;;;;;12.55;10.23;;;;;;;15.07;96.08;101934.97;6190805;23;20020;-69
2023/08/11 00:39:03;;;;;;;10.85;9.85;;;;;;;15.05;96.37;101934.09;6191552;23;20018;-69
2023/08/11 00:41:28;;;;;;;15.10;11.02;;;;;;;15.03;96.96;101930.63;6215329;23;20445;-69
2023/08/11 00:43:54;;;;;;;12.48;11.27;;;;;;;15.09;96.49;101933.19;6190353;23;20019;-69
2023/08/11 00:46:22;;;;;;;11.35;10.35;;;;;;;15.11;96.30;101931.38;6165143;23;20016;-69
2023/08/11 00:48:51;;;;;;;11.88;10.68;;;;;;;15.02;96.02;101927.09;6216553;23;20008;-70
2023/08/11 00:51:18;;;;;;;12.73;10.82;;;;;;;15.02;96.32;101927.09;6191450;23;20110;-69
2023/08/11 00:53:48;;;;;;;12.00;10.88;;;;;;;14.84;97.11;101930.84;6215574;23;20035;-69
2023/08/11 00:56:14;;;;;;;15.90;10.98;;;;;;;15.03;96.28;101917.44;6190919;23;20070;-69
2023/08/11 00:58:42;;;;;;;16.73;12.20;;;;;;;14.95;96.98;101916.66;6217711;23;20008;-70
2023/08/11 01:01:07;;;;;;;13.10;11.88;;;;;;;14.95;97.32;101917.50;6193355;23;20051;-69
2023/08/11 01:03:34;;;;;;;13.88;12.43;;;;;;;14.87;97.77;101909.69;6167415;23;20008;-69
2023/08/11 01:06:23;;;;;;;13.85;12.48;;;;;;;14.86;98.29;101907.94;6168570;23;20015;-69
2023/08/11 01:09:00;;;;;;;13.85;12.60;;;;;;;14.82;98.51;101905.38;6218273;23;20119;-69
2023/08/11 01:11:38;;;;;;;14.02;12.60;;;;;;;14.78;98.43;101899.25;6217741;23;20012;-69
2023/08/11 01:14:16;;;;;;;14.73;13.30;;;;;;;14.87;98.32;101909.69;6218129;23;20094;-69
2023/08/11 01:16:45;;;;;;;14.95;13.40;;;;;;;14.82;98.10;101906.22;6192350;23;20019;-69
2023/08/11 01:19:18;;;;;;;16.17;14.68;;;;;;;14.87;97.97;101901.78;6193197;23;20004;-69
2023/08/11 01:21:46;;;;;;;14.25;12.82;;;;;;;14.83;97.63;101892.16;6216742;23;20011;-69
2023/08/11 01:24:12;;;;;;;14.32;13.02;;;;;;;14.84;97.59;101893.91;6217901;23;20008;-69
2023/08/11 01:26:37;;;;;;;14.77;13.38;;;;;;;14.83;97.18;101893.94;6167362;23;20008;-69
2023/08/11 01:29:03;;;;;;;15.68;14.27;;;;;;;14.95;96.86;101884.97;6193524;23;20070;-69
2023/08/11 01:31:29;;;;;;;15.63;14.07;;;;;;;14.95;96.72;101884.97;6192126;23;20148;-69
2023/08/11 01:33:54;;;;;;;16.00;14.25;;;;;;;14.90;96.44;101887.69;6216962;23;20338;-69
2023/08/11 01:36:25;;;;;;;16.67;15.10;;;;;;;14.90;96.37;101885.91;6166945;23;20375;-69
2023/08/11 01:38:51;;;;;;;17.23;15.43;;;;;;;14.97;96.07;101888.44;6217513;23;20023;-69
2023/08/11 01:41:16;;;;;;;16.23;14.82;;;;;;;14.97;95.96;101883.19;6192387;23;20150;-69
2023/08/11 01:43:42;;;;;;;16.75;15.07;;;;;;;15.02;95.95;101884.00;6193421;23;20454;-69
2023/08/11 01:46:09;;;;;;;15.85;14.40;;;;;;;15.03;95.55;101886.63;6168819;23;20422;-69
2023/08/11 01:48:36;;;;;;;17.60;15.80;;;;;;;15.07;95.72;101884.81;6193084;23;20035;-69
2023/08/11 01:51:02;;;;;;;17.25;15.73;;;;;;;15.13;95.24;101897.94;6218717;23;20020;-69
2023/08/11 01:53:27;;;;;;;17.92;16.42;;;;;;;15.18;95.02;101901.34;6167825;23;20063;-69
2023/08/11 01:55:56;;;;;;;17.42;15.75;;;;;;;15.20;94.94;101888.13;6193411;23;20012;-70
2023/08/11 01:58:22;;;;;;;18.38;16.63;;;;;;;15.22;94.94;101892.50;6193444;23;20016;-69
2023/08/11 02:00:47;;;;;;;14.73;13.32;;;;;;;15.06;94.50;101883.94;6166991;23;20069;-69
2023/08/11 02:03:13;;;;;;;16.63;14.93;;;;;;;15.12;94.54;101887.41;6216890;23;20034;-69
2023/08/11 02:05:38;;;;;;;16.40;15.00;;;;;;;15.02;94.70;101886.63;6193107;23;20015;-69
2023/08/11 02:08:04;;;;;;;17.73;16.02;;;;;;;15.03;95.04;101880.47;6165648;23;20031;-69
2023/08/11 02:10:30;;;;;;;17.73;16.00;;;;;;;14.94;95.02;101875.31;6192360;23;20067;-69
2023/08/11 02:12:55;;;;;;;17.63;15.88;;;;;;;14.80;95.23;101881.66;6167400;23;20012;-69
2023/08/11 02:15:20;;;;;;;18.20;16.55;;;;;;;14.80;95.89;101871.09;6192054;23;20323;-69
2023/08/11 02:17:46;;;;;;;17.65;16.10;;;;;;;14.77;96.27;101876.41;6191095;23;20019;-69
2023/08/11 02:20:21;;;;;;;17.77;16.27;;;;;;;14.70;96.52;101867.69;6192235;23;20069;-69
2023/08/11 02:22:46;;;;;;;18.08;16.15;;;;;;;14.67;96.79;101869.50;6169944;23;20077;-69
2023/08/11 02:25:12;;;;;;;19.85;17.75;;;;;;;14.69;96.75;101873.00;6192004;23;20016;-69
2023/08/11 02:27:38;;;;;;;18.42;16.73;;;;;;;14.68;96.76;101866.84;6166495;23;20016;-69
2023/08/11 02:30:05;;;;;;;18.02;16.38;;;;;;;14.67;96.63;101865.09;6192013;23;20383;-69
2023/08/11 02:32:31;;;;;;;17.88;16.27;;;;;;;14.67;96.52;101866.88;6192490;23;20090;-69
2023/08/11 02:34:56;;;;;;;19.05;17.10;;;;;;;14.63;96.69;101857.25;6167653;23;20430;-69
2023/08/11 02:37:22;;;;;;;19.90;17.88;;;;;;;14.60;97.26;101862.53;6191166;23;20032;-69
2023/08/11 02:39:47;;;;;;;19.10;17.10;;;;;;;14.58;97.13;101857.25;6191093;23;20008;-69
2023/08/11 02:42:13;;;;;;;18.80;16.90;;;;;;;14.62;96.98;101866.03;6191584;23;20104;-69
2023/08/11 02:44:38;;;;;;;19.23;17.38;;;;;;;14.60;96.85;101866.03;6216581;22;20020;-69
2023/08/11 02:47:03;;;;;;;17.60;15.80;;;;;;;14.62;96.40;101866.03;6191669;23;20012;-69
2023/08/11 02:49:29;;;;;;;18.30;16.45;;;;;;;14.67;96.45;101865.09;6192290;23;20004;-69
2023/08/11 02:51:54;;;;;;;17.65;15.98;;;;;;;14.68;96.53;101873.88;6215951;23;20012;-69
2023/08/11 02:54:20;;;;;;;18.23;16.45;;;;;;;14.70;95.56;101874.75;6191186;22;20013;-69
2023/08/11 02:56:46;;;;;;;17.45;15.75;;;;;;;14.67;95.98;101873.00;6191890;23;20008;-69
2023/08/11 02:59:12;;;;;;;14.30;13.00;;;;;;;14.59;95.29;101876.59;6191235;23;20169;-69
2023/08/11 03:01:38;;;;;;;16.38;14.98;;;;;;;14.55;94.78;101873.13;6215770;23;20008;-69
2023/08/11 03:04:04;;;;;;;17.90;16.20;;;;;;;14.54;95.15;101881.94;6191399;23;20012;-70
2023/08/11 03:06:30;;;;;;;16.35;14.77;;;;;;;14.52;95.46;101881.06;6190112;23;20012;-69
2023/08/11 03:08:55;;;;;;;18.27;16.48;;;;;;;14.47;95.82;101886.41;6191554;23;20097;-69
2023/08/11 03:11:20;;;;;;;17.73;15.80;;;;;;;14.35;95.91;101886.53;6166515;23;20015;-69
2023/08/11 03:13:46;;;;;;;14.30;12.80;;;;;;;14.40;95.46;101876.81;6191589;23;20019;-69
2023/08/11 03:16:11;;;;;;;16.85;15.25;;;;;;;14.32;95.24;101873.38;6166798;23;20385;-69
2023/08/11 03:18:37;;;;;;;15.45;14.05;;;;;;;14.28;95.46;101882.19;6166361;23;20397;-69
2023/08/11 03:21:02;;;;;;;18.52;16.70;;;;;;;14.16;95.82;101872.66;6166862;23;20015;-69
2023/08/11 03:23:28;;;;;;;16.88;15.38;;;;;;;14.14;96.95;101867.41;6189937;23;20028;-69
2023/08/11 03:25:54;;;;;;;17.15;15.52;;;;;;;14.08;96.77;101872.75;6191562;23;20426;-69
2023/08/11 03:28:20;;;;;;;19.83;18.10;;;;;;;14.08;97.20;101867.50;6166122;23;20032;-69
2023/08/11 03:30:45;;;;;;;19.13;17.42;;;;;;;14.03;98.44;101869.28;6215968;23;20008;-69
2023/08/11 03:33:11;;;;;;;17.58;16.08;;;;;;;13.93;98.28;101870.25;6215712;23;20023;-69
2023/08/11 03:35:41;;;;;;;17.58;16.08;;;;;;;13.96;98.38;101870.22;6191369;23;20012;-69
2023/08/11 03:38:08;;;;;;;17.02;15.63;;;;;;;13.97;98.29;101871.97;6242235;23;20004;-69
2023/08/11 03:40:33;;;;;;;17.10;15.50;;;;;;;13.98;97.42;101868.47;6166141;23;20082;-69
2023/08/11 03:42:59;;;;;;;18.48;16.60;;;;;;;13.81;98.61;101865.97;6166812;23;20401;-69
2023/08/11 03:45:24;;;;;;;18.25;16.55;;;;;;;13.88;98.24;101867.69;6192077;23;20381;-69
2023/08/11 03:47:50;;;;;;;19.75;17.95;;;;;;;13.88;99.09;101867.69;6191084;23;20034;-69
2023/08/11 03:50:15;;;;;;;18.33;16.65;;;;;;;13.86;98.50;101870.31;6165957;23;20031;-69
2023/08/11 03:52:41;;;;;;;19.85;17.77;;;;;;;13.82;98.74;101863.34;6190463;23;20016;-69
2023/08/11 03:55:09;;;;;;;20.33;18.35;;;;;;;13.71;100.00;101867.81;6191426;23;20008;-69
2023/08/11 03:57:36;;;;;;;19.88;17.90;;;;;;;13.69;99.94;101867.84;6216689;23;20019;-69
2023/08/11 04:00:09;;;;;;;19.27;17.58;;;;;;;13.61;99.53;101866.16;6190950;23;20008;-69
2023/08/11 04:02:37;;;;;;;19.80;18.02;;;;;;;13.67;99.96;101864.31;6214961;23;20062;-69
2023/08/11 04:05:03;;;;;;;18.08;16.27;;;;;;;13.71;99.37;101859.06;6192400;23;20145;-69
2023/08/11 04:07:28;;;;;;;18.35;16.52;;;;;;;13.67;99.02;101861.69;6189880;23;20039;-69
2023/08/11 04:09:54;;;;;;;17.10;15.45;;;;;;;13.65;98.80;101858.22;6216772;23;20090;-69
2023/08/11 04:12:19;;;;;;;20.48;18.67;;;;;;;13.54;100.00;101853.91;6167098;23;20012;-69
2023/08/11 04:14:45;;;;;;;21.05;19.05;;;;;;;13.48;100.00;101862.75;6216023;23;20074;-69
2023/08/11 04:17:13;;;;;;;21.17;19.38;;;;;;;13.50;100.00;101860.94;6190096;23;20024;-69
2023/08/11 04:19:41;;;;;;;21.70;19.58;;;;;;;13.58;100.00;101863.53;6167683;23;20019;-69
2023/08/11 04:22:06;;;;;;;20.38;18.58;;;;;;;13.62;100.00;101865.25;6190683;23;20027;-69
2023/08/11 04:24:32;;;;;;;21.52;19.42;;;;;;;13.52;100.00;101862.69;6191281;22;20016;-69
2023/08/11 04:26:57;;;;;;;20.55;18.35;;;;;;;13.59;100.00;101863.53;6190811;23;20016;-69
2023/08/11 04:29:23;;;;;;;17.73;16.02;;;;;;;13.59;100.00;101860.00;6166493;23;20095;-69
2023/08/11 04:31:48;;;;;;;19.92;18.13;;;;;;;13.52;100.00;101865.31;6190425;23;20015;-69
2023/08/11 04:34:16;;;;;;;19.63;17.90;;;;;;;13.67;100.00;101859.06;6193678;23;20047;-69
2023/08/11 04:36:41;;;;;;;20.10;18.30;;;;;;;13.72;100.00;101861.66;6168211;23;20177;-69
2023/08/11 04:39:07;;;;;;;21.45;19.25;;;;;;;13.57;100.00;101862.66;6168020;23;20425;-69
2023/08/11 04:41:32;;;;;;;24.17;20.58;;;;;;;13.60;100.00;101867.03;6217600;23;20038;-69
2023/08/11 04:43:57;;;;;;;22.58;20.38;;;;;;;13.69;100.00;101859.94;6193190;23;20012;-69
2023/08/11 04:46:24;;;;;;;21.67;19.58;;;;;;;13.70;100.00;101858.16;6192884;23;20012;-69
2023/08/11 04:48:49;;;;;;;19.30;17.50;;;;;;;13.76;100.00;101857.25;6217625;23;20015;-69
2023/08/11 04:51:15;;;;;;;23.08;21.00;;;;;;;13.77;100.00;101861.63;6165330;23;20438;-69
2023/08/11 04:53:40;;;;;;;21.02;19.13;;;;;;;14.04;100.00;101858.72;6168152;23;20087;-69
2023/08/11 04:56:06;;;;;;;18.23;16.50;;;;;;;14.31;100.00;101856.69;6168672;23;20103;-69
2023/08/11 04:58:33;;;;;;;18.25;16.40;;;;;;;14.64;99.05;101845.78;6193732;23;20322;-69
2023/08/11 05:01:03;;;;;;;19.35;17.63;;;;;;;14.85;98.10;101848.13;6169197;23;20117;-69
2023/08/11 05:03:28;;;;;;;19.55;17.65;;;;;;;15.20;96.56;101846.78;6193376;23;20004;-69
2023/08/11 05:05:54;;;;;;;19.13;17.33;;;;;;;15.40;95.37;101835.91;6192967;23;20099;-69
2023/08/11 05:08:19;;;;;;;18.25;16.60;;;;;;;15.68;94.02;101840.72;6192187;23;20020;-69
2023/08/11 05:10:47;;;;;;;17.83;16.23;;;;;;;15.94;92.19;101840.28;6218377;23;20425;-69
2023/08/11 05:13:12;;;;;;;20.35;15.88;;;;;;;16.17;91.86;101831.06;6193048;23;20032;-69
2023/08/11 05:15:38;;;;;;;17.08;15.38;;;;;;;16.46;89.76;101834.91;6168150;23;20019;-69
2023/08/11 05:18:05;;;;;;;16.67;15.10;;;;;;;16.70;88.97;101832.66;6168344;23;20338;-69
2023/08/11 05:20:30;;;;;;;16.17;14.55;;;;;;;17.20;87.25;101832.47;6165786;23;20130;-69
2023/08/11 05:22:56;;;;;;;15.70;14.07;;;;;;;17.69;84.19;101840.97;6166800;23;20008;-69
2023/08/11 05:25:21;;;;;;;16.13;14.48;;;;;;;18.02;82.56;101828.63;6193120;23;20013;-69
2023/08/11 05:27:47;;;;;;;17.08;13.88;;;;;;;18.69;80.17;101825.81;6216939;23;20381;-69
2023/08/11 05:30:15;;;;;;;15.32;13.07;;;;;;;19.34;76.15;101826.47;6193486;23;20008;-69
2023/08/11 05:32:41;;;;;;;17.75;12.98;;;;;;;19.63;74.69;101832.59;6215629;23;20508;-69
2023/08/11 05:35:08;;;;;;;15.50;13.65;;;;;;;20.05;72.51;101826.72;6192732;23;20049;-69
2023/08/11 05:37:37;;;;;;;16.33;12.55;;;;;;;20.58;70.01;101830.13;6166564;23;20094;-69
2023/08/11 05:40:02;;;;;;;15.32;12.70;;;;;;;21.33;67.78;101831.63;6192988;23;20016;-69
2023/08/11 05:42:28;;;;;;;13.60;12.23;;;;;;;21.94;65.34;101830.00;6191090;23;20016;-69
2023/08/11 05:44:53;;;;;;;13.77;12.40;;;;;;;22.04;64.42;101828.66;6168332;23;20008;-69
2023/08/11 05:47:19;;;;;;;12.68;11.50;;;;;;;22.54;62.59;101831.78;6165734;23;20123;-69
2023/08/11 05:49:44;;;;;;;14.20;11.80;;;;;;;23.11;60.49;101824.63;6168116;23;20350;-69
2023/08/11 05:52:11;;;;;;;13.95;11.30;;;;;;;23.50;59.49;101825.41;6167068;23;20348;-69
2023/08/11 05:54:36;;;;;;;12.27;10.95;;;;;;;24.03;57.60;101828.94;6192784;22;20086;-69
2023/08/11 05:57:03;;;;;;;13.18;10.32;;;;;;;24.30;56.52;101831.94;6192714;23;20440;-69
2023/08/11 05:59:29;;;;;;;12.23;10.65;;;;;;;24.57;55.52;101828.72;6192950;23;20008;-69
2023/08/11 06:01:54;;;;;;;15.07;10.63;;;;;;;25.16;53.98;101834.34;6167153;23;20110;-69
2023/08/11 06:04:20;;;;;;;11.90;10.32;;;;;;;25.69;53.41;101834.88;6166177;22;20031;-70
2023/08/11 06:06:45;;;;;;;13.52;10.43;;;;;;;26.21;52.17;101841.56;6167076;23;20090;-69
2023/08/11 06:09:11;;;;;;;11.18;9.98;;;;;;;26.81;49.47;101831.56;6192849;23;20105;-70
2023/08/11 06:11:36;;;;;;;11.95;10.15;;;;;;;26.95;49.22;101834.22;6191939;23;20018;-70
2023/08/11 06:14:02;;;;;;;14.88;9.57;;;;;;;26.88;48.91;101826.66;6167289;23;20015;-70
2023/08/11 06:16:28;;;;;;;14.05;9.95;;;;;;;27.20;47.53;101829.91;6191933;23;20016;-70
2023/08/11 06:18:53;;;;;;;13.70;10.55;;;;;;;27.37;47.58;101833.31;6217832;23;20015;-70
2023/08/11 06:21:19;;;;;;;11.75;9.52;;;;;;;27.87;46.72;101834.38;6167437;23;20071;-70
2023/08/11 06:23:44;;;;;;;13.13;9.85;;;;;;;27.51;46.80;101833.22;6166858;23;20016;-70
2023/08/11 06:26:11;;;;;;;12.65;10.10;;;;;;;26.80;48.34;101841.44;6192177;23;20028;-70
2023/08/11 06:28:37;;;;;;;11.27;10.10;;;;;;;25.53;50.65;101837.59;6191414;23;20014;-69
2023/08/11 06:31:02;;;;;;;12.45;10.38;;;;;;;24.38;55.30;101831.56;6192105;23;20508;-70
2023/08/11 06:33:28;;;;;;;13.07;10.00;;;;;;;24.14;56.42;101831.06;6165522;23;20034;-70
2023/08/11 06:35:54;;;;;;;11.90;9.60;;;;;;;24.00;57.43;101829.97;6167114;23;20057;-67
2023/08/11 06:38:19;;;;;;;13.23;10.18;;;;;;;25.04;54.48;101843.09;6191388;23;20012;-68
2023/08/11 06:40:45;;;;;;;14.27;9.80;;;;;;;26.14;52.74;101840.22;6192135;23;20034;-68
2023/08/11 06:43:10;;;;;;;17.20;10.05;;;;;;;25.92;52.00;101844.22;6191340;23;20024;-68
2023/08/11 06:45:36;;;;;;;15.48;10.27;;;;;;;25.62;53.03;101843.38;6217203;23;20012;-68
2023/08/11 06:48:01;;;;;;;11.40;9.65;;;;;;;24.91;55.47;101842.94;6215329;23;20449;-67
2023/08/11 06:50:27;;;;;;;11.85;9.52;;;;;;;24.19;58.03;101840.59;6191652;23;20302;-67
2023/08/11 06:52:52;;;;;;;13.38;9.60;;;;;;;23.77;58.60;101844.53;6190988;23;20070;-68
2023/08/11 06:55:18;;;;;;;10.25;9.15;;;;;;;23.38;59.00;101842.94;6192122;23;20035;-68
2023/08/11 06:57:43;;;;;;;10.45;9.32;;;;;;;23.10;60.47;101846.06;6191445;23;20012;-67
2023/08/11 07:00:09;;;;;;;12.18;9.68;;;;;;;22.88;62.99;101847.09;6191388;23;20015;-68
2023/08/11 07:02:35;;;;;;;13.00;9.77;;;;;;;22.72;61.50;101848.78;6191877;23;20008;-68
2023/08/11 07:05:04;;;;;;;11.88;9.65;;;;;;;22.65;64.23;101845.53;6191966;23;20496;-68
2023/08/11 07:07:31;;;;;;;12.33;10.43;;;;;;;22.59;63.86;101852.00;6191017;23;20123;-68
2023/08/11 07:09:57;;;;;;;12.23;9.25;;;;;;;22.69;65.90;101855.13;6191065;23;20286;-68
2023/08/11 07:12:22;;;;;;;13.27;9.25;;;;;;;22.74;67.33;101847.78;6216214;23;20096;-68
2023/08/11 07:14:48;;;;;;;11.77;9.45;;;;;;;23.02;64.63;101849.13;6192369;23;20334;-68
2023/08/11 07:17:14;;;;;;;10.15;8.63;;;;;;;23.20;65.45;101855.38;6216581;23;20426;-68
2023/08/11 07:19:39;;;;;;;13.23;8.43;;;;;;;23.38;64.89;101856.31;6192146;23;20100;-68
2023/08/11 07:22:05;;;;;;;9.65;7.55;;;;;;;23.84;62.58;101863.81;6187100;23;20260;-68
2023/08/11 07:24:30;;;;;;;9.70;7.40;;;;;;;23.81;59.86;101858.63;6191341;22;20138;-68
2023/08/11 07:26:55;;;;;;;9.77;6.90;;;;;;;24.10;60.15;101858.94;6165669;23;20008;-68
2023/08/11 07:29:21;;;;;;;9.70;7.07;;;;;;;24.25;61.28;101860.81;6191279;23;20129;-68
2023/08/11 07:31:46;;;;;;;13.27;7.25;;;;;;;23.74;59.96;101849.19;6190945;23;20070;-68
2023/08/11 07:34:12;;;;;;;9.80;6.95;;;;;;;23.44;61.65;101857.81;6191954;23;20008;-68
2023/08/11 07:36:38;;;;;;;10.45;6.97;;;;;;;23.20;62.29;101858.06;6189513;23;20414;-68
2023/08/11 07:39:07;;;;;;;9.40;6.40;;;;;;;22.98;62.60;101855.53;6216769;23;20091;-68
2023/08/11 07:41:33;;;;;;;10.88;6.57;;;;;;;22.98;62.23;101851.06;6216599;23;20024;-68
2023/08/11 07:44:18;;;;;;;10.02;6.97;;;;;;;23.04;62.85;101865.06;6190588;23;20096;-68
2023/08/11 07:46:47;;;;;;;10.68;6.43;;;;;;;22.74;64.59;101853.13;6241449;23;20004;-68
2023/08/11 07:49:13;;;;;;;7.68;6.53;;;;;;;22.73;64.58;101854.03;6215463;23;20011;-69
2023/08/11 07:51:40;;;;;;;8.88;6.32;;;;;;;22.71;64.72;101850.56;6214467;23;20110;-69
2023/08/11 07:54:06;;;;;;;10.18;6.38;;;;;;;22.74;66.04;101850.44;6193240;23;20012;-69
2023/08/11 07:56:31;;;;;;;8.65;6.45;;;;;;;22.66;64.79;101858.81;6191862;23;20346;-69
2023/08/11 07:58:57;;;;;;;9.05;5.93;;;;;;;22.74;65.95;101854.91;6191586;23;20012;-69
2023/08/11 08:01:23;;;;;;;10.32;6.82;;;;;;;22.81;65.53;101859.91;6191116;23;20405;-68
2023/08/11 08:03:48;;;;;;;7.65;5.63;;;;;;;22.98;66.75;101863.56;6192348;23;20457;-69
2023/08/11 08:06:14;;;;;;;7.38;5.50;;;;;;;23.06;65.46;101863.19;6215347;23;20012;-69
2023/08/11 08:08:40;;;;;;;7.63;5.30;;;;;;;23.11;63.59;101866.53;6215752;23;20024;-69
2023/08/11 08:11:05;;;;;;;7.43;4.70;;;;;;;23.19;64.47;101864.38;6192151;23;20512;-69
2023/08/11 08:13:31;;;;;;;7.72;4.85;;;;;;;23.22;64.81;101863.38;6191575;23;20012;-69
2023/08/11 08:15:57;;;;;;;6.88;4.43;;;;;;;23.25;63.55;101861.41;6217155;23;20023;-69
2023/08/11 08:18:22;;;;;;;6.10;4.22;;;;;;;23.22;62.17;101863.38;6191394;23;20082;-69
2023/08/11 08:20:48;;;;;;;7.50;4.65;;;;;;;23.29;62.54;101860.31;6217425;23;20360;-69
2023/08/11 08:23:14;;;;;;;7.07;4.45;;;;;;;23.39;61.94;101863.41;6190754;23;20035;-69
2023/08/11 08:46:42;;;;;;;7.72;4.05;;;;;;;24.07;63.31;101857.28;6210126;22;20016;-67
2023/08/11 08:49:22;;;;;;;7.70;3.92;;;;;;;24.25;62.58;101868.84;6106360;23;20053;-68
2023/08/11 08:51:49;;;;;;;6.07;3.75;;;;;;;24.23;60.38;101857.34;6187403;23;20004;-68
2023/08/11 08:54:14;;;;;;;6.25;3.50;;;;;;;24.42;62.01;101862.56;6161463;23;20453;-68
2023/08/11 08:56:40;;;;;;;6.70;3.83;;;;;;;24.53;62.93;101862.00;6157408;23;20108;-68
2023/08/11 08:59:06;;;;;;;5.43;3.63;;;;;;;24.51;59.90;101870.13;6156621;23;20009;-68
2023/08/11 09:01:33;;;;;;;5.90;3.75;;;;;;;24.51;60.49;101855.84;6181727;23;20367;-68
2023/08/11 09:03:59;;;;;;;9.48;3.13;;;;;;;24.55;59.88;101857.41;6130283;23;20024;-68
2023/08/11 09:09:00;;;;;;;8.00;3.60;;;;;;;24.54;59.65;101853.88;6204895;23;20059;-67
2023/08/11 09:11:29;;;;;;;5.50;3.25;;;;;;;24.70;61.59;101861.09;6137197;23;20016;-69
2023/08/11 09:14:01;;;;;;;6.63;4.07;;;;;;;24.70;58.39;101856.59;6159973;23;20008;-71
2023/08/11 09:16:27;;;;;;;5.38;3.72;;;;;;;24.66;58.81;101854.19;6188650;23;20019;-69
2023/08/11 09:18:52;;;;;;;10.23;3.60;;;;;;;24.62;56.47;101847.25;6166735;23;20095;-69
2023/08/11 09:21:22;;;;;;;5.78;3.30;;;;;;;24.68;56.43;101853.16;6192799;23;20012;-69
2023/08/11 09:23:47;;;;;;;4.78;3.13;;;;;;;24.73;58.46;101860.94;6191821;23;20004;-69
2023/08/11 09:26:13;;;;;;;4.88;3.33;;;;;;;24.72;59.77;101853.81;6193571;23;20020;-69
2023/08/11 09:28:39;;;;;;;5.20;2.72;;;;;;;24.76;58.45;101851.84;6193349;23;20012;-69
2023/08/11 09:59:32;;;;;;;5.25;3.10;;;;;;;25.57;53.41;101849.00;6199675;23;20020;-67
2023/08/11 10:34:24;;;;;;;5.93;2.90;;;;;;;26.55;52.99;101842.16;6215665;23;20032;-67
2023/08/11 10:37:14;;;;;;;3.80;2.35;;;;;;;26.71;55.01;101839.38;6193467;23;20024;-66
2023/08/11 10:39:40;;;;;;;4.03;2.60;;;;;;;26.75;52.80;101840.91;6218106;23;20422;-66
2023/08/11 10:42:11;;;;;;;4.95;2.75;;;;;;;26.80;54.03;101841.44;6218807;23;20162;-66
2023/08/11 10:44:43;;;;;;;5.13;2.47;;;;;;;26.84;56.24;101827.81;6218354;22;20004;-66
2023/08/11 10:47:09;;;;;;;4.65;2.58;;;;;;;26.85;53.82;101835.78;6193419;23;20019;-68
2023/08/11 10:49:40;;;;;;;4.22;2.80;;;;;;;26.97;54.92;101829.59;6191737;23;20012;-67
2023/08/11 10:52:05;;;;;;;3.25;2.05;;;;;;;26.84;53.34;101833.19;6243448;23;20178;-66
2023/08/11 10:54:32;;;;;;;4.50;2.58;;;;;;;26.83;54.96;101835.00;6189954;22;20031;-66
2023/08/11 10:57:02;;;;;;;19.08;8.45;;;;;;;26.93;53.95;101838.81;6218228;23;20079;-67
2023/08/11 10:59:34;;;;;;;7.15;3.10;;;;;;;26.90;52.85;101836.34;6217830;23;20008;-67
2023/08/11 11:02:00;;;;;;;3.92;2.50;;;;;;;26.92;53.07;101833.53;6170748;23;20008;-67
2023/08/11 11:04:31;;;;;;;6.28;3.42;;;;;;;26.91;54.07;101840.75;6192007;22;20099;-67
2023/08/11 11:06:58;;;;;;;3.47;2.13;;;;;;;26.92;53.21;101831.75;6217950;23;20004;-67
2023/08/11 11:09:24;;;;;;;3.65;2.42;;;;;;;26.91;53.01;101824.63;6217159;23;20012;-67
2023/08/11 11:11:53;;;;;;;7.15;3.17;;;;;;;27.07;53.81;101829.00;6217618;23;20018;-67
2023/08/11 11:17:40;;;;;;;5.03;2.55;;;;;;;27.00;52.68;101828.53;6204731;23;20035;-67
2023/08/11 11:20:07;;;;;;;5.22;2.55;;;;;;;27.06;54.57;101822.75;6187230;23;20095;-67
2023/08/11 11:22:32;;;;;;;3.95;2.35;;;;;;;27.05;52.75;101820.16;6160747;23;20023;-66
2023/08/11 11:25:01;;;;;;;5.53;2.30;;;;;;;27.07;51.78;101829.00;6195432;23;20008;-67
2023/08/11 11:27:26;;;;;;;5.90;2.63;;;;;;;27.09;53.07;101821.69;6218182;23;20016;-66
2023/08/11 11:29:59;;;;;;;4.95;2.50;;;;;;;27.18;54.40;101826.44;6191581;23;20062;-67
2023/08/11 11:32:24;;;;;;;4.63;2.28;;;;;;;27.14;54.38;101815.03;6217342;23;20008;-67
2023/08/11 11:34:50;;;;;;;4.68;2.13;;;;;;;27.25;53.31;101830.47;6217315;23;20076;-66
2023/08/11 11:37:22;;;;;;;2.88;2.03;;;;;;;27.18;50.65;101831.81;6192403;23;20012;-66
2023/08/11 11:39:47;;;;;;;3.58;2.20;;;;;;;27.25;50.68;101822.41;6216396;23;20092;-67
2023/08/11 11:42:13;;;;;;;5.93;2.38;;;;;;;27.27;51.77;101825.84;6192883;23;20036;-67
2023/08/11 11:44:39;;;;;;;4.10;2.40;;;;;;;27.14;50.82;101823.09;6191624;22;20016;-67
2023/08/11 11:47:05;;;;;;;3.42;2.50;;;;;;;27.22;53.21;101827.97;6165523;23;20008;-67
2023/08/11 11:49:31;;;;;;;4.32;2.10;;;;;;;27.24;51.71;101812.59;6166235;23;20321;-67
2023/08/11 11:51:58;;;;;;;3.15;2.03;;;;;;;27.28;51.37;101808.75;6192898;23;20094;-67
2023/08/11 11:54:27;;;;;;;4.65;2.15;;;;;;;27.27;50.82;101812.38;6191267;22;20431;-67
2023/08/11 11:56:53;;;;;;;3.97;2.22;;;;;;;27.39;53.08;101817.94;6192862;23;20461;-67
2023/08/11 11:59:20;;;;;;;3.50;2.10;;;;;;;27.36;50.60;101816.31;6191522;23;20011;-68
2023/08/11 12:01:46;;;;;;;3.13;1.95;;;;;;;27.35;51.07;101809.19;6192744;23;20414;-67
2023/08/11 12:04:12;;;;;;;5.13;2.30;;;;;;;27.40;51.98;101808.91;6191829;23;20037;-68
2023/08/11 12:06:37;;;;;;;2.53;2.00;;;;;;;27.53;52.43;101809.78;6189441;23;20012;-68
2023/08/11 12:09:09;;;;;;;4.13;2.10;;;;;;;27.60;51.13;101811.09;6191997;23;20164;-70
2023/08/11 12:11:35;;;;;;;3.92;1.98;;;;;;;27.64;54.25;101818.00;6215254;23;20350;-71
2023/08/11 12:14:01;;;;;;;2.78;2.05;;;;;;;27.72;51.56;101820.13;6191476;23;20019;-68
2023/08/11 12:16:27;;;;;;;5.20;2.80;;;;;;;27.81;52.22;101813.25;6243085;22;20015;-69
2023/08/11 12:18:53;;;;;;;3.90;2.10;;;;;;;27.95;51.27;101813.16;6167474;23;20373;-68
2023/08/11 12:21:18;;;;;;;3.42;1.90;;;;;;;27.87;50.89;101807.47;6192299;23;20023;-67
2023/08/11 12:23:44;;;;;;;3.95;2.58;;;;;;;27.77;50.39;101818.00;6192087;23;20494;-68
2023/08/11 12:26:10;;;;;;;4.35;2.30;;;;;;;27.78;49.42;101811.63;6191478;23;20079;-69
2023/08/11 12:28:36;;;;;;;2.78;1.90;;;;;;;27.83;50.21;101800.56;6192310;23;20008;-68
2023/08/11 12:31:03;;;;;;;3.85;2.10;;;;;;;27.84;51.88;101818.41;6191674;23;20023;-68
2023/08/11 12:33:29;;;;;;;3.40;2.05;;;;;;;27.80;49.48;101803.44;6190987;23;20012;-69
2023/08/11 12:35:54;;;;;;;2.67;2.05;;;;;;;27.77;51.06;101807.22;6216481;23;20290;-68
2023/08/11 12:38:20;;;;;;;6.35;2.10;;;;;;;27.82;51.22;101794.28;6189651;23;20011;-68